sensor_id;sensor_type;location;lat;lon;timestamp;pressure;altitude;pressure_sealevel;temperature;humidity
77351;BME280;66420;50.246;14.320;2024-01-30T00:01:44;101463.09;;;-2.32;100.00
77351;BME280;66420;50.246;14.320;2024-01-30T00:04:29;101454.22;;;-2.32;100.00
77351;BME280;66420;50.246;14.320;2024-01-30T00:07:13;101464.59;;;-2.29;100.00
77351;BME280;66420;50.246;14.320;2024-01-30T00:09:58;101462.88;;;-2.22;100.00
77351;BME280;66420;50.246;14.320;2024-01-30T00:12:43;101457.50;;;-2.22;100.00
77351;BME280;66420;50.246;14.320;2024-01-30T00:15:28;101460.59;;;-2.33;100.00
77351;BME280;66420;50.246;14.320;2024-01-30T00:18:12;101459.66;;;-2.40;100.00
77351;BME280;66420;50.246;14.320;2024-01-30T00:20:57;101453.59;;;-2.34;100.00
77351;BME280;66420;50.246;14.320;2024-01-30T00:23:42;101457.75;;;-2.32;100.00
77351;BME280;66420;50.246;14.320;2024-01-30T00:26:26;101447.84;;;-2.31;100.00
77351;BME280;66420;50.246;14.320;2024-01-30T00:29:11;101450.31;;;-2.21;100.00
77351;BME280;66420;50.246;14.320;2024-01-30T00:31:57;101457.28;;;-2.35;100.00
77351;BME280;66420;50.246;14.320;2024-01-30T00:34:41;101452.53;;;-2.33;100.00
77351;BME280;66420;50.246;14.320;2024-01-30T00:37:26;101448.22;;;-2.34;100.00
77351;BME280;66420;50.246;14.320;2024-01-30T00:40:11;101450.34;;;-2.52;100.00
77351;BME280;66420;50.246;14.320;2024-01-30T00:43:00;101448.47;;;-2.52;100.00
77351;BME280;66420;50.246;14.320;2024-01-30T00:45:45;101444.31;;;-2.54;100.00
77351;BME280;66420;50.246;14.320;2024-01-30T00:48:30;101444.09;;;-2.45;100.00
77351;BME280;66420;50.246;14.320;2024-01-30T00:51:15;101442.56;;;-2.39;100.00
77351;BME280;66420;50.246;14.320;2024-01-30T00:54:00;101438.50;;;-2.35;100.00
77351;BME280;66420;50.246;14.320;2024-01-30T00:56:44;101440.88;;;-2.40;100.00
77351;BME280;66420;50.246;14.320;2024-01-30T00:59:29;101427.19;;;-2.45;100.00
77351;BME280;66420;50.246;14.320;2024-01-30T01:02:14;101422.19;;;-2.48;100.00
77351;BME280;66420;50.246;14.320;2024-01-30T01:05:02;101431.34;;;-2.43;100.00
77351;BME280;66420;50.246;14.320;2024-01-30T01:07:47;101436.91;;;-2.44;100.00
77351;BME280;66420;50.246;14.320;2024-01-30T01:10:32;101437.19;;;-2.39;100.00
77351;BME280;66420;50.246;14.320;2024-01-30T01:13:17;101431.63;;;-2.38;100.00
77351;BME280;66420;50.246;14.320;2024-01-30T01:16:02;101436.81;;;-2.36;100.00
77351;BME280;66420;50.246;14.320;2024-01-30T01:18:47;101437.00;;;-2.38;100.00
77351;BME280;66420;50.246;14.320;2024-01-30T01:21:32;101438.38;;;-2.42;100.00
77351;BME280;66420;50.246;14.320;2024-01-30T01:24:17;101434.50;;;-2.39;100.00
77351;BME280;66420;50.246;14.320;2024-01-30T01:27:02;101429.69;;;-2.44;100.00
77351;BME280;66420;50.246;14.320;2024-01-30T01:29:46;101433.84;;;-2.41;100.00
77351;BME280;66420;50.246;14.320;2024-01-30T01:32:31;101434.84;;;-2.42;100.00
77351;BME280;66420;50.246;14.320;2024-01-30T01:35:15;101441.72;;;-2.40;100.00
77351;BME280;66420;50.246;14.320;2024-01-30T01:38:00;101436.69;;;-2.43;100.00
77351;BME280;66420;50.246;14.320;2024-01-30T01:40:45;101433.00;;;-2.42;100.00
77351;BME280;66420;50.246;14.320;2024-01-30T01:43:30;101439.81;;;-2.31;100.00
77351;BME280;66420;50.246;14.320;2024-01-30T01:46:17;101435.09;;;-2.29;100.00
77351;BME280;66420;50.246;14.320;2024-01-30T01:49:03;101433.38;;;-2.22;100.00
77351;BME280;66420;50.246;14.320;2024-01-30T01:51:50;101434.28;;;-2.30;100.00
77351;BME280;66420;50.246;14.320;2024-01-30T01:54:36;101434.44;;;-2.31;100.00
77351;BME280;66420;50.246;14.320;2024-01-30T01:57:20;101434.81;;;-2.34;100.00
77351;BME280;66420;50.246;14.320;2024-01-30T02:00:06;101433.16;;;-2.35;100.00
77351;BME280;66420;50.246;14.320;2024-01-30T02:02:52;101429.78;;;-2.37;100.00
77351;BME280;66420;50.246;14.320;2024-01-30T02:05:39;101428.25;;;-2.32;100.00
77351;BME280;66420;50.246;14.320;2024-01-30T02:08:25;101434.16;;;-2.36;100.00
77351;BME280;66420;50.246;14.320;2024-01-30T02:11:11;101433.16;;;-2.35;100.00
77351;BME280;66420;50.246;14.320;2024-01-30T02:13:55;101430.78;;;-2.38;100.00
77351;BME280;66420;50.246;14.320;2024-01-30T02:16:40;101431.00;;;-2.40;100.00
77351;BME280;66420;50.246;14.320;2024-01-30T02:19:24;101433.47;;;-2.38;100.00
77351;BME280;66420;50.246;14.320;2024-01-30T02:22:09;101423.97;;;-2.41;100.00
77351;BME280;66420;50.246;14.320;2024-01-30T02:24:54;101425.97;;;-2.43;100.00
77351;BME280;66420;50.246;14.320;2024-01-30T02:27:38;101426.81;;;-2.42;100.00
77351;BME280;66420;50.246;14.320;2024-01-30T02:30:23;101425.25;;;-2.37;100.00
77351;BME280;66420;50.246;14.320;2024-01-30T02:33:08;101429.47;;;-2.34;100.00
77351;BME280;66420;50.246;14.320;2024-01-30T02:35:53;101423.25;;;-2.35;100.00
77351;BME280;66420;50.246;14.320;2024-01-30T02:38:38;101425.56;;;-2.32;100.00
77351;BME280;66420;50.246;14.320;2024-01-30T02:41:22;101423.00;;;-2.25;100.00
77351;BME280;66420;50.246;14.320;2024-01-30T02:44:07;101414.00;;;-2.32;100.00
77351;BME280;66420;50.246;14.320;2024-01-30T02:46:52;101416.81;;;-2.26;100.00
77351;BME280;66420;50.246;14.320;2024-01-30T02:49:38;101419.91;;;-2.37;100.00
77351;BME280;66420;50.246;14.320;2024-01-30T02:52:23;101419.53;;;-2.34;100.00
77351;BME280;66420;50.246;14.320;2024-01-30T02:55:08;101415.00;;;-2.33;100.00
77351;BME280;66420;50.246;14.320;2024-01-30T02:57:53;101407.34;;;-2.36;100.00
77351;BME280;66420;50.246;14.320;2024-01-30T03:00:38;101405.31;;;-2.34;100.00
77351;BME280;66420;50.246;14.320;2024-01-30T03:03:22;101406.34;;;-2.35;100.00
77351;BME280;66420;50.246;14.320;2024-01-30T03:06:07;101407.03;;;-2.41;100.00
77351;BME280;66420;50.246;14.320;2024-01-30T03:08:52;101405.72;;;-2.45;100.00
77351;BME280;66420;50.246;14.320;2024-01-30T03:11:37;101396.00;;;-2.46;100.00
77351;BME280;66420;50.246;14.320;2024-01-30T03:14:22;101393.03;;;-2.51;100.00
77351;BME280;66420;50.246;14.320;2024-01-30T03:17:06;101396.56;;;-2.51;100.00
77351;BME280;66420;50.246;14.320;2024-01-30T03:19:51;101397.38;;;-2.50;100.00
77351;BME280;66420;50.246;14.320;2024-01-30T03:22:36;101397.28;;;-2.57;100.00
77351;BME280;66420;50.246;14.320;2024-01-30T03:25:22;101393.56;;;-2.56;100.00
77351;BME280;66420;50.246;14.320;2024-01-30T03:28:06;101390.78;;;-2.62;100.00
77351;BME280;66420;50.246;14.320;2024-01-30T03:30:51;101384.34;;;-2.53;100.00
77351;BME280;66420;50.246;14.320;2024-01-30T03:33:36;101379.00;;;-2.53;100.00
77351;BME280;66420;50.246;14.320;2024-01-30T03:36:22;101373.25;;;-2.50;100.00
77351;BME280;66420;50.246;14.320;2024-01-30T03:39:07;101374.28;;;-2.51;100.00
77351;BME280;66420;50.246;14.320;2024-01-30T03:41:51;101380.00;;;-2.54;100.00
77351;BME280;66420;50.246;14.320;2024-01-30T03:44:36;101388.56;;;-2.59;100.00
77351;BME280;66420;50.246;14.320;2024-01-30T03:47:21;101379.81;;;-2.53;100.00
77351;BME280;66420;50.246;14.320;2024-01-30T03:50:06;101382.97;;;-2.49;100.00
77351;BME280;66420;50.246;14.320;2024-01-30T03:52:51;101378.56;;;-2.42;100.00
77351;BME280;66420;50.246;14.320;2024-01-30T03:55:36;101379.63;;;-2.51;100.00
77351;BME280;66420;50.246;14.320;2024-01-30T03:58:20;101381.38;;;-2.58;100.00
77351;BME280;66420;50.246;14.320;2024-01-30T04:01:05;101389.25;;;-2.57;100.00
77351;BME280;66420;50.246;14.320;2024-01-30T04:03:49;101380.91;;;-2.62;100.00
77351;BME280;66420;50.246;14.320;2024-01-30T04:06:34;101378.69;;;-2.58;100.00
77351;BME280;66420;50.246;14.320;2024-01-30T04:09:18;101377.38;;;-2.62;100.00
77351;BME280;66420;50.246;14.320;2024-01-30T04:12:03;101381.44;;;-2.66;100.00
77351;BME280;66420;50.246;14.320;2024-01-30T04:14:49;101379.88;;;-2.61;100.00
77351;BME280;66420;50.246;14.320;2024-01-30T04:17:33;101375.00;;;-2.57;100.00
77351;BME280;66420;50.246;14.320;2024-01-30T04:20:18;101381.84;;;-2.55;100.00
77351;BME280;66420;50.246;14.320;2024-01-30T04:23:03;101381.66;;;-2.53;100.00
77351;BME280;66420;50.246;14.320;2024-01-30T04:25:48;101385.22;;;-2.61;100.00
77351;BME280;66420;50.246;14.320;2024-01-30T04:28:33;101380.38;;;-2.57;100.00
77351;BME280;66420;50.246;14.320;2024-01-30T04:31:17;101381.00;;;-2.55;100.00
77351;BME280;66420;50.246;14.320;2024-01-30T04:34:03;101389.50;;;-2.52;100.00
77351;BME280;66420;50.246;14.320;2024-01-30T04:36:47;101380.47;;;-2.51;100.00
77351;BME280;66420;50.246;14.320;2024-01-30T04:39:35;101385.34;;;-2.54;100.00
77351;BME280;66420;50.246;14.320;2024-01-30T04:42:19;101386.03;;;-2.52;100.00
77351;BME280;66420;50.246;14.320;2024-01-30T04:45:05;101385.34;;;-2.54;100.00
77351;BME280;66420;50.246;14.320;2024-01-30T04:47:50;101387.25;;;-2.63;100.00
77351;BME280;66420;50.246;14.320;2024-01-30T04:50:35;101388.88;;;-2.54;100.00
77351;BME280;66420;50.246;14.320;2024-01-30T04:53:20;101381.38;;;-2.58;100.00
77351;BME280;66420;50.246;14.320;2024-01-30T04:56:05;101394.06;;;-2.52;100.00
77351;BME280;66420;50.246;14.320;2024-01-30T04:58:50;101394.41;;;-2.55;100.00
77351;BME280;66420;50.246;14.320;2024-01-30T05:01:35;101396.44;;;-2.57;100.00
77351;BME280;66420;50.246;14.320;2024-01-30T05:04:20;101391.31;;;-2.67;100.00
77351;BME280;66420;50.246;14.320;2024-01-30T05:07:04;101391.78;;;-2.63;100.00
77351;BME280;66420;50.246;14.320;2024-01-30T05:09:49;101396.91;;;-2.54;100.00
77351;BME280;66420;50.246;14.320;2024-01-30T05:12:34;101389.72;;;-2.53;100.00
77351;BME280;66420;50.246;14.320;2024-01-30T05:15:19;101405.59;;;-2.52;100.00
77351;BME280;66420;50.246;14.320;2024-01-30T05:18:03;101401.06;;;-2.51;100.00
77351;BME280;66420;50.246;14.320;2024-01-30T05:20:50;101401.38;;;-2.46;100.00
77351;BME280;66420;50.246;14.320;2024-01-30T05:23:35;101397.22;;;-2.49;100.00
77351;BME280;66420;50.246;14.320;2024-01-30T05:26:20;101390.31;;;-2.43;100.00
77351;BME280;66420;50.246;14.320;2024-01-30T05:29:07;101395.94;;;-2.38;100.00
77351;BME280;66420;50.246;14.320;2024-01-30T05:31:51;101403.72;;;-2.43;100.00
77351;BME280;66420;50.246;14.320;2024-01-30T05:34:36;101400.97;;;-2.35;100.00
77351;BME280;66420;50.246;14.320;2024-01-30T05:37:20;101395.59;;;-2.35;100.00
77351;BME280;66420;50.246;14.320;2024-01-30T05:40:06;101393.63;;;-2.41;100.00
77351;BME280;66420;50.246;14.320;2024-01-30T05:42:50;101396.16;;;-2.40;100.00
77351;BME280;66420;50.246;14.320;2024-01-30T05:45:36;101391.66;;;-2.47;100.00
77351;BME280;66420;50.246;14.320;2024-01-30T05:48:20;101387.13;;;-2.47;100.00
77351;BME280;66420;50.246;14.320;2024-01-30T05:51:07;101396.22;;;-2.48;100.00
77351;BME280;66420;50.246;14.320;2024-01-30T05:53:52;101391.38;;;-2.52;100.00
77351;BME280;66420;50.246;14.320;2024-01-30T05:56:37;101388.72;;;-2.52;100.00
77351;BME280;66420;50.246;14.320;2024-01-30T05:59:22;101385.66;;;-2.49;100.00
77351;BME280;66420;50.246;14.320;2024-01-30T06:02:07;101386.97;;;-2.45;100.00
77351;BME280;66420;50.246;14.320;2024-01-30T06:04:51;101394.88;;;-2.52;100.00
77351;BME280;66420;50.246;14.320;2024-01-30T06:07:36;101388.72;;;-2.52;100.00
77351;BME280;66420;50.246;14.320;2024-01-30T06:10:20;101391.66;;;-2.47;100.00
77351;BME280;66420;50.246;14.320;2024-01-30T06:13:05;101395.53;;;-2.50;100.00
77351;BME280;66420;50.246;14.320;2024-01-30T06:15:49;101394.06;;;-2.52;100.00
77351;BME280;66420;50.246;14.320;2024-01-30T06:18:34;101390.72;;;-2.54;100.00
77351;BME280;66420;50.246;14.320;2024-01-30T06:21:20;101396.44;;;-2.57;100.00
77351;BME280;66420;50.246;14.320;2024-01-30T06:24:05;101396.00;;;-2.46;100.00
77351;BME280;66420;50.246;14.320;2024-01-30T06:26:50;101401.06;;;-2.51;100.00
77351;BME280;66420;50.246;14.320;2024-01-30T06:29:35;101404.53;;;-2.43;100.00
77351;BME280;66420;50.246;14.320;2024-01-30T06:32:19;101405.06;;;-2.47;100.00
77351;BME280;66420;50.246;14.320;2024-01-30T06:46:03;101409.34;;;-2.38;100.00
77351;BME280;66420;50.246;14.320;2024-01-30T06:48:48;101409.66;;;-2.33;100.00
77351;BME280;66420;50.246;14.320;2024-01-30T06:51:33;101411.31;;;-2.32;100.00
77351;BME280;66420;50.246;14.320;2024-01-30T06:54:18;101414.44;;;-2.20;100.00
77351;BME280;66420;50.246;14.320;2024-01-30T06:57:03;101415.28;;;-2.20;100.00
77351;BME280;66420;50.246;14.320;2024-01-30T06:59:48;101412.69;;;-2.13;100.00
77351;BME280;66420;50.246;14.320;2024-01-30T07:02:32;101413.22;;;-2.18;100.00
77351;BME280;66420;50.246;14.320;2024-01-30T07:05:17;101413.28;;;-2.26;100.00
77351;BME280;66420;50.246;14.320;2024-01-30T07:08:02;101418.06;;;-2.36;100.00
77351;BME280;66420;50.246;14.320;2024-01-30T07:10:47;101415.00;;;-2.33;100.00
77351;BME280;66420;50.246;14.320;2024-01-30T07:13:32;101415.00;;;-2.33;100.00
77351;BME280;66420;50.246;14.320;2024-01-30T07:16:17;101423.34;;;-2.28;100.00
77351;BME280;66420;50.246;14.320;2024-01-30T07:19:02;101425.03;;;-2.27;100.00
77351;BME280;66420;50.246;14.320;2024-01-30T07:21:47;101428.13;;;-2.38;100.00
77351;BME280;66420;50.246;14.320;2024-01-30T07:24:31;101432.16;;;-2.42;100.00
77351;BME280;66420;50.246;14.320;2024-01-30T07:27:16;101433.63;;;-2.32;100.00
77351;BME280;66420;50.246;14.320;2024-01-30T07:30:02;101427.00;;;-2.21;100.00
77351;BME280;66420;50.246;14.320;2024-01-30T07:32:47;101427.47;;;-2.17;100.00
77351;BME280;66420;50.246;14.320;2024-01-30T07:35:32;101426.03;;;-2.28;100.00
77351;BME280;66420;50.246;14.320;2024-01-30T07:38:16;101421.97;;;-2.24;100.00
77351;BME280;66420;50.246;14.320;2024-01-30T07:41:01;101420.66;;;-2.28;100.00
77351;BME280;66420;50.246;14.320;2024-01-30T07:43:46;101427.41;;;-2.32;100.00
77351;BME280;66420;50.246;14.320;2024-01-30T07:46:32;101428.72;;;-2.28;100.00
77351;BME280;66420;50.246;14.320;2024-01-30T07:49:16;101433.91;;;-2.27;100.00
77351;BME280;66420;50.246;14.320;2024-01-30T07:52:01;101429.69;;;-2.21;100.00
77351;BME280;66420;50.246;14.320;2024-01-30T07:54:46;101429.31;;;-2.18;100.00
77351;BME280;66420;50.246;14.320;2024-01-30T07:57:32;101432.66;;;-2.16;100.00
77351;BME280;66420;50.246;14.320;2024-01-30T08:00:17;101429.69;;;-2.21;100.00
77351;BME280;66420;50.246;14.320;2024-01-30T08:03:02;101431.69;;;-2.23;100.00
77351;BME280;66420;50.246;14.320;2024-01-30T08:05:46;101433.75;;;-2.25;100.00
77351;BME280;66420;50.246;14.320;2024-01-30T08:08:31;101427.63;;;-2.19;100.00
77351;BME280;66420;50.246;14.320;2024-01-30T08:11:16;101428.41;;;-2.10;100.00
77351;BME280;66420;50.246;14.320;2024-01-30T08:14:01;101427.84;;;-2.20;100.00
77351;BME280;66420;50.246;14.320;2024-01-30T08:16:46;101430.28;;;-2.11;100.00
77351;BME280;66420;50.246;14.320;2024-01-30T08:19:31;101435.91;;;-2.06;100.00
77351;BME280;66420;50.246;14.320;2024-01-30T08:22:16;101427.06;;;-2.06;100.00
77351;BME280;66420;50.246;14.320;2024-01-30T08:25:02;101427.53;;;-2.03;100.00
77351;BME280;66420;50.246;14.320;2024-01-30T08:27:47;101432.50;;;-2.00;100.00
77351;BME280;66420;50.246;14.320;2024-01-30T08:30:31;101434.59;;;-2.10;100.00
77351;BME280;66420;50.246;14.320;2024-01-30T08:33:16;101431.69;;;-2.00;100.00
77351;BME280;66420;50.246;14.320;2024-01-30T08:36:01;101431.22;;;-2.04;100.00
77351;BME280;66420;50.246;14.320;2024-01-30T08:38:45;101426.31;;;-2.00;100.00
77351;BME280;66420;50.246;14.320;2024-01-30T08:41:30;101420.47;;;-2.04;100.00
77351;BME280;66420;50.246;14.320;2024-01-30T08:44:15;101422.44;;;-1.98;100.00
77351;BME280;66420;50.246;14.320;2024-01-30T08:47:00;101423.50;;;-1.84;100.00
77351;BME280;66420;50.246;14.320;2024-01-30T08:49:45;101420.22;;;-1.94;100.00
77351;BME280;66420;50.246;14.320;2024-01-30T08:52:29;101423.91;;;-1.95;100.00
77351;BME280;66420;50.246;14.320;2024-01-30T08:55:14;101420.94;;;-2.00;100.00
77351;BME280;66420;50.246;14.320;2024-01-30T08:57:59;101415.81;;;-2.10;100.00
77351;BME280;66420;50.246;14.320;2024-01-30T09:00:44;101414.44;;;-2.06;100.00
77351;BME280;66420;50.246;14.320;2024-01-30T09:03:29;101411.22;;;-2.01;100.00
77351;BME280;66420;50.246;14.320;2024-01-30T09:06:14;101411.97;;;-2.07;100.00
77351;BME280;66420;50.246;14.320;2024-01-30T09:08:59;101420.84;;;-2.07;100.00
77351;BME280;66420;50.246;14.320;2024-01-30T09:11:44;101418.72;;;-1.97;100.00
77351;BME280;66420;50.246;14.320;2024-01-30T09:14:29;101420.47;;;-2.04;100.00
77351;BME280;66420;50.246;14.320;2024-01-30T09:17:14;101415.78;;;-2.02;100.00
77351;BME280;66420;50.246;14.320;2024-01-30T09:19:58;101417.97;;;-2.05;100.00
77351;BME280;66420;50.246;14.320;2024-01-30T09:22:43;101430.50;;;-1.98;100.00
77351;BME280;66420;50.246;14.320;2024-01-30T09:25:28;101425.84;;;-2.04;100.00
77351;BME280;66420;50.246;14.320;2024-01-30T09:28:12;101430.13;;;-1.95;100.00
77351;BME280;66420;50.246;14.320;2024-01-30T09:30:57;101422.19;;;-1.88;100.00
77351;BME280;66420;50.246;14.320;2024-01-30T09:33:42;101432.81;;;-1.95;100.00
77351;BME280;66420;50.246;14.320;2024-01-30T09:36:28;101424.34;;;-1.84;100.00
77351;BME280;66420;50.246;14.320;2024-01-30T09:39:13;101425.88;;;-1.89;100.00
77351;BME280;66420;50.246;14.320;2024-01-30T09:42:11;101416.78;;;-2.03;100.00
77351;BME280;66420;50.246;14.320;2024-01-30T09:45:02;101421.34;;;-1.89;100.00
77351;BME280;66420;50.246;14.320;2024-01-30T09:47:48;101430.84;;;-2.01;100.00
77351;BME280;66420;50.246;14.320;2024-01-30T09:50:34;101433.47;;;-1.93;100.00
77351;BME280;66420;50.246;14.320;2024-01-30T09:53:22;101427.72;;;-1.90;100.00
77351;BME280;66420;50.246;14.320;2024-01-30T09:56:06;101422.94;;;-1.80;100.00
77351;BME280;66420;50.246;14.320;2024-01-30T09:58:52;101426.63;;;-1.81;100.00
77351;BME280;66420;50.246;14.320;2024-01-30T10:01:36;101424.53;;;-1.70;100.00
77351;BME280;66420;50.246;14.320;2024-01-30T10:04:22;101425.25;;;-1.76;100.00
77351;BME280;66420;50.246;14.320;2024-01-30T10:07:07;101425.91;;;-1.74;100.00
77351;BME280;66420;50.246;14.320;2024-01-30T10:09:54;101427.84;;;-1.68;100.00
77351;BME280;66420;50.246;14.320;2024-01-30T10:12:41;101419.63;;;-1.67;100.00
77351;BME280;66420;50.246;14.320;2024-01-30T10:15:28;101416.09;;;-1.67;100.00
77351;BME280;66420;50.246;14.320;2024-01-30T10:18:13;101419.06;;;-1.62;100.00
77351;BME280;66420;50.246;14.320;2024-01-30T10:20:58;101407.78;;;-1.58;100.00
77351;BME280;66420;50.246;14.320;2024-01-30T10:23:43;101409.34;;;-1.63;100.00
77351;BME280;66420;50.246;14.320;2024-01-30T10:26:29;101406.56;;;-1.55;100.00
77351;BME280;66420;50.246;14.320;2024-01-30T10:29:13;101402.78;;;-1.61;100.00
77351;BME280;66420;50.246;14.320;2024-01-30T10:32:02;101399.06;;;-1.60;100.00
77351;BME280;66420;50.246;14.320;2024-01-30T10:34:47;101400.00;;;-1.53;100.00
77351;BME280;66420;50.246;14.320;2024-01-30T10:37:32;101396.94;;;-1.50;100.00
77351;BME280;66420;50.246;14.320;2024-01-30T10:40:21;101391.69;;;-1.43;100.00
77351;BME280;66420;50.246;14.320;2024-01-30T10:43:10;101392.03;;;-1.46;100.00
77351;BME280;66420;50.246;14.320;2024-01-30T10:46:00;101384.47;;;-1.43;100.00
77351;BME280;66420;50.246;14.320;2024-01-30T10:48:57;101385.19;;;-1.34;100.00
77351;BME280;66420;50.246;14.320;2024-01-30T10:51:43;101386.22;;;-1.35;100.00
77351;BME280;66420;50.246;14.320;2024-01-30T10:54:31;101392.78;;;-1.52;100.00
77351;BME280;66420;50.246;14.320;2024-01-30T10:57:17;101396.22;;;-1.58;100.00
77351;BME280;66420;50.246;14.320;2024-01-30T11:00:07;101387.88;;;-1.49;100.00
77351;BME280;66420;50.246;14.320;2024-01-30T11:02:55;101384.25;;;-1.41;100.00
77351;BME280;66420;50.246;14.320;2024-01-30T11:05:42;101376.47;;;-1.36;100.00
77351;BME280;66420;50.246;14.320;2024-01-30T11:08:27;101377.25;;;-1.42;100.00
77351;BME280;66420;50.246;14.320;2024-01-30T11:11:16;101371.50;;;-1.39;100.00
77351;BME280;66420;50.246;14.320;2024-01-30T11:14:01;101369.09;;;-1.34;100.00
77351;BME280;66420;50.246;14.320;2024-01-30T11:16:46;101375.84;;;-1.38;100.00
77351;BME280;66420;50.246;14.320;2024-01-30T11:19:33;101372.97;;;-1.37;100.00
77351;BME280;66420;50.246;14.320;2024-01-30T11:22:20;101364.44;;;-1.40;100.00
77351;BME280;66420;50.246;14.320;2024-01-30T11:25:05;101374.44;;;-1.34;100.00
77351;BME280;66420;50.246;14.320;2024-01-30T11:27:52;101360.38;;;-1.36;100.00
77351;BME280;66420;50.246;14.320;2024-01-30T11:30:37;101360.09;;;-1.41;100.00
77351;BME280;66420;50.246;14.320;2024-01-30T11:33:29;101362.13;;;-1.28;100.00
77351;BME280;66420;50.246;14.320;2024-01-30T11:36:15;101358.22;;;-1.26;100.00
77351;BME280;66420;50.246;14.320;2024-01-30T11:39:00;101351.47;;;-1.22;100.00
77351;BME280;66420;50.246;14.320;2024-01-30T11:41:48;101349.44;;;-1.20;100.00
77351;BME280;66420;50.246;14.320;2024-01-30T11:44:35;101348.03;;;-1.16;100.00
77351;BME280;66420;50.246;14.320;2024-01-30T11:47:20;101348.66;;;-1.14;100.00
77351;BME280;66420;50.246;14.320;2024-01-30T11:50:05;101340.88;;;-1.09;100.00
77351;BME280;66420;50.246;14.320;2024-01-30T11:52:51;101344.94;;;-1.13;100.00
77351;BME280;66420;50.246;14.320;2024-01-30T11:55:36;101334.94;;;-1.19;100.00
77351;BME280;66420;50.246;14.320;2024-01-30T11:58:24;101332.22;;;-1.04;100.00
77351;BME280;66420;50.246;14.320;2024-01-30T12:01:11;101326.16;;;-0.92;100.00
77351;BME280;66420;50.246;14.320;2024-01-30T12:03:56;101318.75;;;-0.90;100.00
77351;BME280;66420;50.246;14.320;2024-01-30T12:06:41;101318.09;;;-0.92;100.00
77351;BME280;66420;50.246;14.320;2024-01-30T12:09:26;101311.78;;;-0.84;100.00
77351;BME280;66420;50.246;14.320;2024-01-30T12:12:12;101314.94;;;-0.80;100.00
77351;BME280;66420;50.246;14.320;2024-01-30T12:14:58;101309.38;;;-0.79;100.00
77351;BME280;66420;50.246;14.320;2024-01-30T12:17:43;101321.56;;;-0.76;100.00
77351;BME280;66420;50.246;14.320;2024-01-30T12:20:28;101309.88;;;-0.69;100.00
77351;BME280;66420;50.246;14.320;2024-01-30T12:23:13;101317.47;;;-0.72;100.00
77351;BME280;66420;50.246;14.320;2024-01-30T12:25:57;101305.31;;;-0.68;100.00
77351;BME280;66420;50.246;14.320;2024-01-30T12:28:49;101299.06;;;-0.75;100.00
77351;BME280;66420;50.246;14.320;2024-01-30T12:31:34;101304.44;;;-0.75;100.00
77351;BME280;66420;50.246;14.320;2024-01-30T12:34:19;101309.41;;;-0.72;100.00
77351;BME280;66420;50.246;14.320;2024-01-30T12:37:05;101299.50;;;-0.72;100.00
77351;BME280;66420;50.246;14.320;2024-01-30T12:39:54;101302.75;;;-0.76;100.00
77351;BME280;66420;50.246;14.320;2024-01-30T12:42:39;101300.31;;;-0.71;100.00
77351;BME280;66420;50.246;14.320;2024-01-30T12:45:25;101302.88;;;-0.63;100.00
77351;BME280;66420;50.246;14.320;2024-01-30T12:48:09;101307.63;;;-0.65;100.00
77351;BME280;66420;50.246;14.320;2024-01-30T12:50:56;101305.38;;;-0.62;100.00
77351;BME280;66420;50.246;14.320;2024-01-30T12:53:40;101300.59;;;-0.66;100.00
77351;BME280;66420;50.246;14.320;2024-01-30T12:56:25;101291.75;;;-0.60;100.00
77351;BME280;66420;50.246;14.320;2024-01-30T12:59:10;101295.91;;;-0.58;100.00
77351;BME280;66420;50.246;14.320;2024-01-30T13:01:55;101303.94;;;-0.64;100.00
77351;BME280;66420;50.246;14.320;2024-01-30T13:04:40;101304.16;;;-0.59;100.00
77351;BME280;66420;50.246;14.320;2024-01-30T13:07:25;101305.00;;;-0.59;100.00
77351;BME280;66420;50.246;14.320;2024-01-30T13:10:10;101312.22;;;-0.59;100.00
77351;BME280;66420;50.246;14.320;2024-01-30T13:12:55;101295.47;;;-0.61;100.00
77351;BME280;66420;50.246;14.320;2024-01-30T13:15:40;101292.13;;;-0.63;100.00
77351;BME280;66420;50.246;14.320;2024-01-30T13:18:25;101292.13;;;-0.63;100.00
77351;BME280;66420;50.246;14.320;2024-01-30T13:21:10;101285.34;;;-0.59;100.00
77351;BME280;66420;50.246;14.320;2024-01-30T13:23:55;101278.94;;;-0.58;100.00
77351;BME280;66420;50.246;14.320;2024-01-30T13:26:39;101278.31;;;-0.60;100.00
77351;BME280;66420;50.246;14.320;2024-01-30T13:29:25;101272.47;;;-0.64;100.00
77351;BME280;66420;50.246;14.320;2024-01-30T13:32:09;101277.03;;;-0.64;100.00
77351;BME280;66420;50.246;14.320;2024-01-30T13:34:54;101274.78;;;-0.61;100.00
77351;BME280;66420;50.246;14.320;2024-01-30T13:37:38;101268.84;;;-0.56;100.00
77351;BME280;66420;50.246;14.320;2024-01-30T13:40:24;101263.72;;;-0.51;100.00
77351;BME280;66420;50.246;14.320;2024-01-30T13:43:09;101264.13;;;-0.48;100.00
77351;BME280;66420;50.246;14.320;2024-01-30T13:45:54;101263.16;;;-0.40;100.00
77351;BME280;66420;50.246;14.320;2024-01-30T13:48:38;101263.75;;;-0.45;100.00
77351;BME280;66420;50.246;14.320;2024-01-30T13:51:23;101265.81;;;-0.47;100.00
77351;BME280;66420;50.246;14.320;2024-01-30T13:54:07;101269.19;;;-0.38;100.00
77351;BME280;66420;50.246;14.320;2024-01-30T13:56:53;101261.94;;;-0.37;100.00
77351;BME280;66420;50.246;14.320;2024-01-30T13:59:38;101265.91;;;-0.33;100.00
77351;BME280;66420;50.246;14.320;2024-01-30T14:02:23;101260.53;;;-0.33;100.00
77351;BME280;66420;50.246;14.320;2024-01-30T14:05:08;101259.69;;;-0.34;100.00
77351;BME280;66420;50.246;14.320;2024-01-30T14:07:54;101259.28;;;-0.31;100.00
77351;BME280;66420;50.246;14.320;2024-01-30T14:10:39;101260.13;;;-0.30;100.00
77351;BME280;66420;50.246;14.320;2024-01-30T14:13:24;101262.19;;;-0.32;100.00